sensor_id;sensor_type;location;lat;lon;timestamp;temperature;humidity
13673;DHT22;6909;52.202;9.876;2024-03-29T00:00:41;7.90;1.00
13673;DHT22;6909;52.202;9.876;2024-03-29T00:03:07;7.80;1.00
13673;DHT22;6909;52.202;9.876;2024-03-29T00:05:34;7.90;1.00
13673;DHT22;6909;52.202;9.876;2024-03-29T00:08:00;7.90;1.00
13673;DHT22;6909;52.202;9.876;2024-03-29T00:10:25;7.90;1.00
13673;DHT22;6909;52.202;9.876;2024-03-29T00:12:51;7.90;1.00
13673;DHT22;6909;52.202;9.876;2024-03-29T00:15:17;7.80;1.00
13673;DHT22;6909;52.202;9.876;2024-03-29T00:17:44;7.80;1.00
13673;DHT22;6909;52.202;9.876;2024-03-29T00:20:11;7.80;1.00
13673;DHT22;6909;52.202;9.876;2024-03-29T00:22:37;7.80;1.00
13673;DHT22;6909;52.202;9.876;2024-03-29T00:25:04;7.90;1.00
13673;DHT22;6909;52.202;9.876;2024-03-29T00:27:29;7.80;1.00
13673;DHT22;6909;52.202;9.876;2024-03-29T00:29:55;7.80;1.00
13673;DHT22;6909;52.202;9.876;2024-03-29T00:32:21;7.70;1.00
13673;DHT22;6909;52.202;9.876;2024-03-29T00:34:50;7.70;1.00
13673;DHT22;6909;52.202;9.876;2024-03-29T00:37:16;7.70;1.00
13673;DHT22;6909;52.202;9.876;2024-03-29T00:39:42;7.70;1.00
13673;DHT22;6909;52.202;9.876;2024-03-29T00:42:08;7.60;1.00
13673;DHT22;6909;52.202;9.876;2024-03-29T00:44:34;7.60;1.00
13673;DHT22;6909;52.202;9.876;2024-03-29T00:47:00;7.60;1.00
13673;DHT22;6909;52.202;9.876;2024-03-29T00:49:26;7.70;1.00
13673;DHT22;6909;52.202;9.876;2024-03-29T00:51:53;7.70;1.00
13673;DHT22;6909;52.202;9.876;2024-03-29T00:54:18;7.70;1.00
13673;DHT22;6909;52.202;9.876;2024-03-29T00:56:44;7.60;1.00
13673;DHT22;6909;52.202;9.876;2024-03-29T00:59:10;7.60;1.00
13673;DHT22;6909;52.202;9.876;2024-03-29T01:01:36;7.40;1.00
13673;DHT22;6909;52.202;9.876;2024-03-29T01:04:01;7.30;1.00
13673;DHT22;6909;52.202;9.876;2024-03-29T01:06:27;7.40;1.00
13673;DHT22;6909;52.202;9.876;2024-03-29T01:08:54;7.30;1.00
13673;DHT22;6909;52.202;9.876;2024-03-29T01:11:20;7.20;1.00
13673;DHT22;6909;52.202;9.876;2024-03-29T01:13:46;7.20;1.00
13673;DHT22;6909;52.202;9.876;2024-03-29T01:16:12;7.20;1.00
13673;DHT22;6909;52.202;9.876;2024-03-29T01:18:37;7.20;1.00
13673;DHT22;6909;52.202;9.876;2024-03-29T01:21:03;7.10;1.00
13673;DHT22;6909;52.202;9.876;2024-03-29T01:23:29;7.10;1.00
13673;DHT22;6909;52.202;9.876;2024-03-29T01:25:56;7.10;1.00
13673;DHT22;6909;52.202;9.876;2024-03-29T01:28:22;7.10;1.00
13673;DHT22;6909;52.202;9.876;2024-03-29T01:30:52;7.20;1.00
13673;DHT22;6909;52.202;9.876;2024-03-29T01:33:18;7.30;1.00
13673;DHT22;6909;52.202;9.876;2024-03-29T01:35:43;7.50;1.00
13673;DHT22;6909;52.202;9.876;2024-03-29T01:38:09;7.40;1.00
13673;DHT22;6909;52.202;9.876;2024-03-29T01:40:35;7.40;1.00
13673;DHT22;6909;52.202;9.876;2024-03-29T01:43:02;7.30;1.00
13673;DHT22;6909;52.202;9.876;2024-03-29T01:45:29;7.20;1.00
13673;DHT22;6909;52.202;9.876;2024-03-29T01:47:56;7.30;1.00
13673;DHT22;6909;52.202;9.876;2024-03-29T01:50:23;7.30;1.00
13673;DHT22;6909;52.202;9.876;2024-03-29T01:52:50;7.20;1.00
13673;DHT22;6909;52.202;9.876;2024-03-29T01:55:17;7.10;1.00
13673;DHT22;6909;52.202;9.876;2024-03-29T01:57:44;7.10;1.00
13673;DHT22;6909;52.202;9.876;2024-03-29T02:00:13;7.10;1.00
13673;DHT22;6909;52.202;9.876;2024-03-29T02:02:40;7.20;1.00
13673;DHT22;6909;52.202;9.876;2024-03-29T02:05:10;7.20;1.00
13673;DHT22;6909;52.202;9.876;2024-03-29T02:07:37;7.20;1.00
13673;DHT22;6909;52.202;9.876;2024-03-29T02:10:03;7.20;1.00
13673;DHT22;6909;52.202;9.876;2024-03-29T02:12:32;7.10;1.00
13673;DHT22;6909;52.202;9.876;2024-03-29T02:14:59;7.10;1.00
13673;DHT22;6909;52.202;9.876;2024-03-29T02:17:29;7.00;1.00
13673;DHT22;6909;52.202;9.876;2024-03-29T02:19:55;7.00;1.00
13673;DHT22;6909;52.202;9.876;2024-03-29T02:22:22;7.00;1.00
13673;DHT22;6909;52.202;9.876;2024-03-29T02:24:51;7.20;1.00
13673;DHT22;6909;52.202;9.876;2024-03-29T02:27:18;7.20;1.00
13673;DHT22;6909;52.202;9.876;2024-03-29T02:29:45;7.30;1.00
13673;DHT22;6909;52.202;9.876;2024-03-29T02:32:27;7.30;1.00
13673;DHT22;6909;52.202;9.876;2024-03-29T02:34:54;7.40;1.00
13673;DHT22;6909;52.202;9.876;2024-03-29T02:37:20;7.50;1.00
13673;DHT22;6909;52.202;9.876;2024-03-29T02:39:47;7.40;1.00
13673;DHT22;6909;52.202;9.876;2024-03-29T02:42:15;7.40;1.00
13673;DHT22;6909;52.202;9.876;2024-03-29T02:44:42;7.30;1.00
13673;DHT22;6909;52.202;9.876;2024-03-29T02:47:09;7.30;1.00
13673;DHT22;6909;52.202;9.876;2024-03-29T02:49:35;7.30;1.00
13673;DHT22;6909;52.202;9.876;2024-03-29T02:52:01;7.30;1.00
13673;DHT22;6909;52.202;9.876;2024-03-29T02:54:28;7.40;1.00
13673;DHT22;6909;52.202;9.876;2024-03-29T02:56:53;7.40;1.00
13673;DHT22;6909;52.202;9.876;2024-03-29T02:59:21;7.50;1.00
13673;DHT22;6909;52.202;9.876;2024-03-29T03:01:47;7.40;1.00
13673;DHT22;6909;52.202;9.876;2024-03-29T03:04:14;7.40;1.00
13673;DHT22;6909;52.202;9.876;2024-03-29T03:06:39;7.50;1.00
13673;DHT22;6909;52.202;9.876;2024-03-29T03:09:06;7.40;1.00
13673;DHT22;6909;52.202;9.876;2024-03-29T03:11:50;7.30;1.00
13673;DHT22;6909;52.202;9.876;2024-03-29T03:14:16;7.30;1.00
13673;DHT22;6909;52.202;9.876;2024-03-29T03:16:44;7.30;1.00
13673;DHT22;6909;52.202;9.876;2024-03-29T03:19:11;7.30;1.00
13673;DHT22;6909;52.202;9.876;2024-03-29T03:21:37;7.20;1.00
13673;DHT22;6909;52.202;9.876;2024-03-29T03:24:04;7.20;1.00
13673;DHT22;6909;52.202;9.876;2024-03-29T03:26:30;7.20;1.00
13673;DHT22;6909;52.202;9.876;2024-03-29T03:28:56;7.20;1.00
13673;DHT22;6909;52.202;9.876;2024-03-29T03:31:22;7.10;1.00
13673;DHT22;6909;52.202;9.876;2024-03-29T03:33:50;7.00;1.00
13673;DHT22;6909;52.202;9.876;2024-03-29T03:36:16;7.10;1.00
13673;DHT22;6909;52.202;9.876;2024-03-29T03:38:42;7.10;1.00
13673;DHT22;6909;52.202;9.876;2024-03-29T03:41:08;7.30;1.00
13673;DHT22;6909;52.202;9.876;2024-03-29T03:43:35;7.50;1.00
13673;DHT22;6909;52.202;9.876;2024-03-29T03:46:01;7.50;1.00
13673;DHT22;6909;52.202;9.876;2024-03-29T03:48:28;7.50;1.00
13673;DHT22;6909;52.202;9.876;2024-03-29T03:50:55;7.60;1.00
13673;DHT22;6909;52.202;9.876;2024-03-29T03:53:22;7.70;1.00
13673;DHT22;6909;52.202;9.876;2024-03-29T03:55:49;7.70;1.00
13673;DHT22;6909;52.202;9.876;2024-03-29T03:58:14;7.70;1.00
13673;DHT22;6909;52.202;9.876;2024-03-29T04:00:41;7.80;1.00
13673;DHT22;6909;52.202;9.876;2024-03-29T04:03:07;8.00;99.90
13673;DHT22;6909;52.202;9.876;2024-03-29T04:05:36;8.00;99.90
13673;DHT22;6909;52.202;9.876;2024-03-29T04:08:04;8.00;99.90
13673;DHT22;6909;52.202;9.876;2024-03-29T04:10:31;7.90;99.90
13673;DHT22;6909;52.202;9.876;2024-03-29T04:12:56;7.90;99.90
13673;DHT22;6909;52.202;9.876;2024-03-29T04:15:23;8.00;99.90
13673;DHT22;6909;52.202;9.876;2024-03-29T04:17:48;8.10;99.90
13673;DHT22;6909;52.202;9.876;2024-03-29T04:20:15;8.20;99.90
13673;DHT22;6909;52.202;9.876;2024-03-29T04:22:41;8.10;99.90
13673;DHT22;6909;52.202;9.876;2024-03-29T04:25:10;8.20;99.90
13673;DHT22;6909;52.202;9.876;2024-03-29T04:27:36;8.20;99.90
13673;DHT22;6909;52.202;9.876;2024-03-29T04:30:03;8.20;99.90
13673;DHT22;6909;52.202;9.876;2024-03-29T04:32:28;8.20;99.90
13673;DHT22;6909;52.202;9.876;2024-03-29T04:34:55;8.10;99.90
13673;DHT22;6909;52.202;9.876;2024-03-29T04:37:21;8.10;99.90
13673;DHT22;6909;52.202;9.876;2024-03-29T04:39:47;8.10;99.90
13673;DHT22;6909;52.202;9.876;2024-03-29T04:42:16;8.10;99.90
13673;DHT22;6909;52.202;9.876;2024-03-29T04:44:42;8.00;99.90
13673;DHT22;6909;52.202;9.876;2024-03-29T04:47:09;8.00;99.90
13673;DHT22;6909;52.202;9.876;2024-03-29T04:49:35;8.00;99.90
13673;DHT22;6909;52.202;9.876;2024-03-29T04:52:03;8.00;99.90
13673;DHT22;6909;52.202;9.876;2024-03-29T04:54:30;8.10;99.90
13673;DHT22;6909;52.202;9.876;2024-03-29T04:56:57;8.10;99.90
13673;DHT22;6909;52.202;9.876;2024-03-29T04:59:25;8.10;99.90
13673;DHT22;6909;52.202;9.876;2024-03-29T05:01:52;8.10;99.90
13673;DHT22;6909;52.202;9.876;2024-03-29T05:04:20;8.10;99.90
13673;DHT22;6909;52.202;9.876;2024-03-29T05:06:51;8.10;99.90
13673;DHT22;6909;52.202;9.876;2024-03-29T05:09:19;8.10;99.90
13673;DHT22;6909;52.202;9.876;2024-03-29T05:11:45;8.10;99.90
13673;DHT22;6909;52.202;9.876;2024-03-29T05:14:13;8.10;99.90
13673;DHT22;6909;52.202;9.876;2024-03-29T05:16:41;8.20;99.90
13673;DHT22;6909;52.202;9.876;2024-03-29T05:19:08;8.30;99.90
13673;DHT22;6909;52.202;9.876;2024-03-29T05:21:34;8.60;99.90
13673;DHT22;6909;52.202;9.876;2024-03-29T05:24:01;8.90;99.90
13673;DHT22;6909;52.202;9.876;2024-03-29T05:26:27;9.00;99.90
13673;DHT22;6909;52.202;9.876;2024-03-29T05:28:54;9.10;99.90
13673;DHT22;6909;52.202;9.876;2024-03-29T05:31:23;9.00;99.90
13673;DHT22;6909;52.202;9.876;2024-03-29T05:33:51;9.00;99.90
13673;DHT22;6909;52.202;9.876;2024-03-29T05:36:18;8.90;99.90
13673;DHT22;6909;52.202;9.876;2024-03-29T05:38:45;8.80;1.00
13673;DHT22;6909;52.202;9.876;2024-03-29T05:41:12;8.70;1.00
13673;DHT22;6909;52.202;9.876;2024-03-29T05:43:39;8.50;1.00
13673;DHT22;6909;52.202;9.876;2024-03-29T05:46:08;8.40;1.00
13673;DHT22;6909;52.202;9.876;2024-03-29T05:48:35;8.30;99.90
13673;DHT22;6909;52.202;9.876;2024-03-29T05:51:03;8.20;99.90
13673;DHT22;6909;52.202;9.876;2024-03-29T05:53:30;8.10;1.00
13673;DHT22;6909;52.202;9.876;2024-03-29T05:55:57;8.10;1.00
13673;DHT22;6909;52.202;9.876;2024-03-29T05:58:23;8.00;1.00
13673;DHT22;6909;52.202;9.876;2024-03-29T06:00:50;8.00;1.00
13673;DHT22;6909;52.202;9.876;2024-03-29T06:03:16;8.00;1.00
13673;DHT22;6909;52.202;9.876;2024-03-29T06:05:43;7.90;99.90
13673;DHT22;6909;52.202;9.876;2024-03-29T06:08:11;7.80;1.00
13673;DHT22;6909;52.202;9.876;2024-03-29T06:10:38;7.60;1.00
13673;DHT22;6909;52.202;9.876;2024-03-29T06:13:04;7.60;28.40
13673;DHT22;6909;52.202;9.876;2024-03-29T06:15:35;7.50;99.90
13673;DHT22;6909;52.202;9.876;2024-03-29T06:18:20;7.50;1.00
13673;DHT22;6909;52.202;9.876;2024-03-29T06:20:47;7.50;99.90
13673;DHT22;6909;52.202;9.876;2024-03-29T06:23:15;7.50;1.00
13673;DHT22;6909;52.202;9.876;2024-03-29T06:25:42;7.40;8.10
13673;DHT22;6909;52.202;9.876;2024-03-29T06:28:08;7.40;1.00
13673;DHT22;6909;52.202;9.876;2024-03-29T06:30:35;7.30;1.00
13673;DHT22;6909;52.202;9.876;2024-03-29T06:33:01;7.20;1.00
13673;DHT22;6909;52.202;9.876;2024-03-29T06:35:29;7.10;1.00
13673;DHT22;6909;52.202;9.876;2024-03-29T06:37:56;7.10;99.90
13673;DHT22;6909;52.202;9.876;2024-03-29T06:40:24;7.00;99.90
13673;DHT22;6909;52.202;9.876;2024-03-29T06:42:51;6.80;1.00
13673;DHT22;6909;52.202;9.876;2024-03-29T06:45:17;6.70;1.00
13673;DHT22;6909;52.202;9.876;2024-03-29T06:47:44;6.60;99.90
13673;DHT22;6909;52.202;9.876;2024-03-29T06:50:11;6.50;99.90
13673;DHT22;6909;52.202;9.876;2024-03-29T06:52:37;6.40;99.90
13673;DHT22;6909;52.202;9.876;2024-03-29T06:55:05;6.40;99.90
13673;DHT22;6909;52.202;9.876;2024-03-29T06:57:33;6.30;99.90
13673;DHT22;6909;52.202;9.876;2024-03-29T07:00:01;6.30;99.90
13673;DHT22;6909;52.202;9.876;2024-03-29T07:02:28;6.20;99.90
13673;DHT22;6909;52.202;9.876;2024-03-29T07:04:55;6.20;99.90
13673;DHT22;6909;52.202;9.876;2024-03-29T07:07:22;6.30;99.90
13673;DHT22;6909;52.202;9.876;2024-03-29T07:09:48;6.30;99.90
13673;DHT22;6909;52.202;9.876;2024-03-29T07:12:15;6.30;99.90
13673;DHT22;6909;52.202;9.876;2024-03-29T07:14:43;6.30;99.90
13673;DHT22;6909;52.202;9.876;2024-03-29T07:17:10;6.40;99.90
13673;DHT22;6909;52.202;9.876;2024-03-29T07:19:36;6.40;99.90
13673;DHT22;6909;52.202;9.876;2024-03-29T07:22:03;6.40;99.90
13673;DHT22;6909;52.202;9.876;2024-03-29T07:24:30;6.40;99.90
13673;DHT22;6909;52.202;9.876;2024-03-29T07:26:57;6.40;99.90
13673;DHT22;6909;52.202;9.876;2024-03-29T07:29:23;6.40;99.90
13673;DHT22;6909;52.202;9.876;2024-03-29T07:31:51;6.40;99.90
13673;DHT22;6909;52.202;9.876;2024-03-29T07:34:19;6.30;99.90
13673;DHT22;6909;52.202;9.876;2024-03-29T07:36:46;6.40;99.90
13673;DHT22;6909;52.202;9.876;2024-03-29T07:39:12;6.40;99.90
13673;DHT22;6909;52.202;9.876;2024-03-29T07:41:38;6.50;99.90
13673;DHT22;6909;52.202;9.876;2024-03-29T07:44:05;6.50;99.90
13673;DHT22;6909;52.202;9.876;2024-03-29T07:46:34;6.60;99.90
13673;DHT22;6909;52.202;9.876;2024-03-29T07:49:01;6.80;99.90
13673;DHT22;6909;52.202;9.876;2024-03-29T07:51:28;7.10;99.90
13673;DHT22;6909;52.202;9.876;2024-03-29T07:53:55;7.30;99.90
13673;DHT22;6909;52.202;9.876;2024-03-29T07:56:22;7.50;99.90
13673;DHT22;6909;52.202;9.876;2024-03-29T07:58:51;7.70;99.90
13673;DHT22;6909;52.202;9.876;2024-03-29T08:01:19;7.90;1.00
13673;DHT22;6909;52.202;9.876;2024-03-29T08:03:46;8.10;1.00
13673;DHT22;6909;52.202;9.876;2024-03-29T08:06:14;8.30;99.90
13673;DHT22;6909;52.202;9.876;2024-03-29T08:08:42;8.50;1.00
13673;DHT22;6909;52.202;9.876;2024-03-29T08:11:09;8.60;99.90
13673;DHT22;6909;52.202;9.876;2024-03-29T08:13:37;8.80;56.00
13673;DHT22;6909;52.202;9.876;2024-03-29T08:16:04;9.00;1.00
13673;DHT22;6909;52.202;9.876;2024-03-29T08:18:31;9.10;99.90
13673;DHT22;6909;52.202;9.876;2024-03-29T08:20:59;9.30;1.00
13673;DHT22;6909;52.202;9.876;2024-03-29T08:23:27;9.40;20.70
13673;DHT22;6909;52.202;9.876;2024-03-29T08:25:53;9.50;99.90
13673;DHT22;6909;52.202;9.876;2024-03-29T08:28:21;9.60;1.00
13673;DHT22;6909;52.202;9.876;2024-03-29T08:30:57;9.70;99.90
13673;DHT22;6909;52.202;9.876;2024-03-29T08:33:24;9.80;99.30
13673;DHT22;6909;52.202;9.876;2024-03-29T08:35:51;9.90;1.00
13673;DHT22;6909;52.202;9.876;2024-03-29T08:38:18;10.00;99.90
13673;DHT22;6909;52.202;9.876;2024-03-29T08:40:45;10.00;1.00
13673;DHT22;6909;52.202;9.876;2024-03-29T08:43:13;10.00;99.90
13673;DHT22;6909;52.202;9.876;2024-03-29T08:45:40;10.00;99.90
13673;DHT22;6909;52.202;9.876;2024-03-29T08:48:07;10.00;1.00
13673;DHT22;6909;52.202;9.876;2024-03-29T08:50:34;10.10;1.00
13673;DHT22;6909;52.202;9.876;2024-03-29T08:53:01;10.00;99.90
13673;DHT22;6909;52.202;9.876;2024-03-29T08:55:28;10.00;99.90
13673;DHT22;6909;52.202;9.876;2024-03-29T08:57:56;9.90;99.90
13673;DHT22;6909;52.202;9.876;2024-03-29T09:00:23;9.90;1.00
13673;DHT22;6909;52.202;9.876;2024-03-29T09:02:50;10.00;21.70
13673;DHT22;6909;52.202;9.876;2024-03-29T09:05:17;10.10;78.90
13673;DHT22;6909;52.202;9.876;2024-03-29T09:07:44;10.20;1.00
13673;DHT22;6909;52.202;9.876;2024-03-29T09:10:11;10.20;1.00
13673;DHT22;6909;52.202;9.876;2024-03-29T09:12:37;10.30;1.00
13673;DHT22;6909;52.202;9.876;2024-03-29T09:15:06;10.40;1.00
13673;DHT22;6909;52.202;9.876;2024-03-29T09:17:38;10.50;83.20
13673;DHT22;6909;52.202;9.876;2024-03-29T09:20:05;10.60;99.90
13673;DHT22;6909;52.202;9.876;2024-03-29T09:22:33;10.40;99.90
13673;DHT22;6909;52.202;9.876;2024-03-29T09:25:00;10.50;99.90
13673;DHT22;6909;52.202;9.876;2024-03-29T09:27:27;10.60;99.90
13673;DHT22;6909;52.202;9.876;2024-03-29T09:29:55;10.70;91.40
13673;DHT22;6909;52.202;9.876;2024-03-29T09:32:23;10.80;99.90
13673;DHT22;6909;52.202;9.876;2024-03-29T09:34:50;10.90;99.90
13673;DHT22;6909;52.202;9.876;2024-03-29T09:37:16;11.10;99.90
13673;DHT22;6909;52.202;9.876;2024-03-29T09:39:45;11.30;17.30
13673;DHT22;6909;52.202;9.876;2024-03-29T09:42:15;11.30;1.00
13673;DHT22;6909;52.202;9.876;2024-03-29T09:44:44;11.40;1.00
13673;DHT22;6909;52.202;9.876;2024-03-29T09:47:14;11.50;1.00
13673;DHT22;6909;52.202;9.876;2024-03-29T09:49:42;11.70;1.00
13673;DHT22;6909;52.202;9.876;2024-03-29T09:52:10;11.70;1.00
13673;DHT22;6909;52.202;9.876;2024-03-29T09:54:38;11.90;1.00
13673;DHT22;6909;52.202;9.876;2024-03-29T09:57:05;11.90;1.00
13673;DHT22;6909;52.202;9.876;2024-03-29T09:59:32;12.20;99.90
13673;DHT22;6909;52.202;9.876;2024-03-29T10:02:00;12.30;99.90
13673;DHT22;6909;52.202;9.876;2024-03-29T10:04:31;12.50;99.90
13673;DHT22;6909;52.202;9.876;2024-03-29T10:07:00;12.50;1.00
13673;DHT22;6909;52.202;9.876;2024-03-29T10:09:26;12.50;1.00
13673;DHT22;6909;52.202;9.876;2024-03-29T10:11:56;12.60;1.00
13673;DHT22;6909;52.202;9.876;2024-03-29T10:14:22;12.50;1.00
13673;DHT22;6909;52.202;9.876;2024-03-29T10:16:51;12.50;1.00
13673;DHT22;6909;52.202;9.876;2024-03-29T10:19:17;12.50;88.70
13673;DHT22;6909;52.202;9.876;2024-03-29T10:21:44;12.90;1.00
13673;DHT22;6909;52.202;9.876;2024-03-29T10:24:13;13.10;1.00
13673;DHT22;6909;52.202;9.876;2024-03-29T10:26:40;13.00;1.00
13673;DHT22;6909;52.202;9.876;2024-03-29T10:29:07;12.60;1.00
13673;DHT22;6909;52.202;9.876;2024-03-29T10:31:34;12.70;1.00
13673;DHT22;6909;52.202;9.876;2024-03-29T10:34:03;12.80;1.00
13673;DHT22;6909;52.202;9.876;2024-03-29T10:36:30;12.90;1.00
13673;DHT22;6909;52.202;9.876;2024-03-29T10:39:01;12.80;1.00
13673;DHT22;6909;52.202;9.876;2024-03-29T10:41:30;13.10;1.00
13673;DHT22;6909;52.202;9.876;2024-03-29T10:44:00;13.30;1.00
13673;DHT22;6909;52.202;9.876;2024-03-29T10:46:30;13.30;1.00
13673;DHT22;6909;52.202;9.876;2024-03-29T10:48:57;13.50;1.00
13673;DHT22;6909;52.202;9.876;2024-03-29T10:51:24;13.50;99.90
13673;DHT22;6909;52.202;9.876;2024-03-29T10:53:53;13.50;99.90
13673;DHT22;6909;52.202;9.876;2024-03-29T10:56:22;13.50;1.00
13673;DHT22;6909;52.202;9.876;2024-03-29T10:58:53;13.20;1.00
13673;DHT22;6909;52.202;9.876;2024-03-29T11:01:23;13.30;1.00
13673;DHT22;6909;52.202;9.876;2024-03-29T11:03:54;13.60;99.90
13673;DHT22;6909;52.202;9.876;2024-03-29T11:06:27;13.70;99.90
13673;DHT22;6909;52.202;9.876;2024-03-29T11:08:56;13.70;99.90
13673;DHT22;6909;52.202;9.876;2024-03-29T11:11:26;13.70;99.90
13673;DHT22;6909;52.202;9.876;2024-03-29T11:14:02;13.70;99.90
13673;DHT22;6909;52.202;9.876;2024-03-29T11:16:29;14.00;99.90
13673;DHT22;6909;52.202;9.876;2024-03-29T11:18:56;13.90;99.90
13673;DHT22;6909;52.202;9.876;2024-03-29T11:21:23;13.80;99.90
13673;DHT22;6909;52.202;9.876;2024-03-29T11:23:54;14.00;99.90
13673;DHT22;6909;52.202;9.876;2024-03-29T11:26:23;13.90;99.90
13673;DHT22;6909;52.202;9.876;2024-03-29T11:28:53;13.90;99.90
13673;DHT22;6909;52.202;9.876;2024-03-29T11:31:24;14.00;92.90
13673;DHT22;6909;52.202;9.876;2024-03-29T11:33:51;14.10;99.90
13673;DHT22;6909;52.202;9.876;2024-03-29T11:36:20;14.40;86.60
13673;DHT22;6909;52.202;9.876;2024-03-29T11:38:50;14.30;39.40
13673;DHT22;6909;52.202;9.876;2024-03-29T11:41:17;14.20;99.90
13673;DHT22;6909;52.202;9.876;2024-03-29T11:43:44;14.50;6.10
13673;DHT22;6909;52.202;9.876;2024-03-29T11:46:13;14.60;1.00
13673;DHT22;6909;52.202;9.876;2024-03-29T11:48:42;14.80;1.00
13673;DHT22;6909;52.202;9.876;2024-03-29T11:51:10;14.60;1.00
13673;DHT22;6909;52.202;9.876;2024-03-29T11:53:38;14.60;1.00
13673;DHT22;6909;52.202;9.876;2024-03-29T11:56:04;14.90;1.00
13673;DHT22;6909;52.202;9.876;2024-03-29T11:58:33;14.90;1.00
13673;DHT22;6909;52.202;9.876;2024-03-29T12:01:01;15.00;1.00
13673;DHT22;6909;52.202;9.876;2024-03-29T12:03:29;15.00;1.00
13673;DHT22;6909;52.202;9.876;2024-03-29T12:05:59;14.80;1.00
13673;DHT22;6909;52.202;9.876;2024-03-29T12:08:28;14.90;1.00
13673;DHT22;6909;52.202;9.876;2024-03-29T12:10:55;15.00;1.00
13673;DHT22;6909;52.202;9.876;2024-03-29T12:13:22;15.00;1.00
13673;DHT22;6909;52.202;9.876;2024-03-29T12:15:48;14.90;1.00
13673;DHT22;6909;52.202;9.876;2024-03-29T12:18:15;14.80;1.00
13673;DHT22;6909;52.202;9.876;2024-03-29T12:20:43;15.00;1.00
13673;DHT22;6909;52.202;9.876;2024-03-29T12:23:13;15.20;1.00
13673;DHT22;6909;52.202;9.876;2024-03-29T12:25:40;15.30;1.00
13673;DHT22;6909;52.202;9.876;2024-03-29T12:28:06;15.00;1.00
13673;DHT22;6909;52.202;9.876;2024-03-29T12:30:33;14.40;1.00
13673;DHT22;6909;52.202;9.876;2024-03-29T12:33:02;14.60;1.00
13673;DHT22;6909;52.202;9.876;2024-03-29T12:35:29;14.60;1.00
13673;DHT22;6909;52.202;9.876;2024-03-29T12:37:58;14.70;1.00
13673;DHT22;6909;52.202;9.876;2024-03-29T12:40:28;15.00;1.00
13673;DHT22;6909;52.202;9.876;2024-03-29T12:42:56;15.10;1.00
13673;DHT22;6909;52.202;9.876;2024-03-29T12:45:23;15.10;1.00
13673;DHT22;6909;52.202;9.876;2024-03-29T12:47:50;14.90;1.00
13673;DHT22;6909;52.202;9.876;2024-03-29T12:50:24;15.10;1.00
13673;DHT22;6909;52.202;9.876;2024-03-29T12:52:53;15.10;1.00
13673;DHT22;6909;52.202;9.876;2024-03-29T12:55:20;15.40;1.00
13673;DHT22;6909;52.202;9.876;2024-03-29T12:57:50;15.40;1.00
13673;DHT22;6909;52.202;9.876;2024-03-29T13:00:19;15.40;1.00
13673;DHT22;6909;52.202;9.876;2024-03-29T13:02:46;15.30;1.00
13673;DHT22;6909;52.202;9.876;2024-03-29T13:05:12;15.40;1.00
13673;DHT22;6909;52.202;9.876;2024-03-29T13:07:39;15.40;1.00
13673;DHT22;6909;52.202;9.876;2024-03-29T13:10:06;15.20;1.00
13673;DHT22;6909;52.202;9.876;2024-03-29T13:12:39;15.10;99.90
13673;DHT22;6909;52.202;9.876;2024-03-29T13:15:17;15.00;99.90
13673;DHT22;6909;52.202;9.876;2024-03-29T13:17:45;14.90;1.00
13673;DHT22;6909;52.202;9.876;2024-03-29T13:20:13;14.90;99.90
13673;DHT22;6909;52.202;9.876;2024-03-29T13:22:40;15.00;1.00
13673;DHT22;6909;52.202;9.876;2024-03-29T13:25:09;15.10;1.00
13673;DHT22;6909;52.202;9.876;2024-03-29T13:27:36;15.10;99.90
13673;DHT22;6909;52.202;9.876;2024-03-29T13:30:04;15.00;99.90
13673;DHT22;6909;52.202;9.876;2024-03-29T13:32:34;15.20;99.90
13673;DHT22;6909;52.202;9.876;2024-03-29T13:35:00;15.20;99.90
13673;DHT22;6909;52.202;9.876;2024-03-29T13:37:30;15.40;99.90
13673;DHT22;6909;52.202;9.876;2024-03-29T13:39:57;15.30;99.90
13673;DHT22;6909;52.202;9.876;2024-03-29T13:42:24;15.20;99.90
13673;DHT22;6909;52.202;9.876;2024-03-29T13:44:50;14.90;99.90
13673;DHT22;6909;52.202;9.876;2024-03-29T13:47:17;14.80;99.90
13673;DHT22;6909;52.202;9.876;2024-03-29T13:49:45;14.90;99.90
13673;DHT22;6909;52.202;9.876;2024-03-29T13:52:13;15.00;99.90
13673;DHT22;6909;52.202;9.876;2024-03-29T13:54:43;15.10;99.90
13673;DHT22;6909;52.202;9.876;2024-03-29T13:57:12;15.30;99.90
13673;DHT22;6909;52.202;9.876;2024-03-29T13:59:38;15.40;99.90
13673;DHT22;6909;52.202;9.876;2024-03-29T14:02:08;15.40;99.90
13673;DHT22;6909;52.202;9.876;2024-03-29T14:04:34;15.60;99.90
13673;DHT22;6909;52.202;9.876;2024-03-29T14:07:03;15.20;99.90
13673;DHT22;6909;52.202;9.876;2024-03-29T14:09:32;15.20;99.90
13673;DHT22;6909;52.202;9.876;2024-03-29T14:11:59;15.10;99.90
13673;DHT22;6909;52.202;9.876;2024-03-29T14:14:26;15.20;99.90
13673;DHT22;6909;52.202;9.876;2024-03-29T14:16:52;15.40;99.90
13673;DHT22;6909;52.202;9.876;2024-03-29T14:19:19;15.40;99.90
13673;DHT22;6909;52.202;9.876;2024-03-29T14:21:46;15.20;99.90
13673;DHT22;6909;52.202;9.876;2024-03-29T14:24:14;15.30;99.90
13673;DHT22;6909;52.202;9.876;2024-03-29T14:26:42;15.40;99.90
13673;DHT22;6909;52.202;9.876;2024-03-29T14:29:10;15.40;99.90
13673;DHT22;6909;52.202;9.876;2024-03-29T14:31:38;15.70;99.90
13673;DHT22;6909;52.202;9.876;2024-03-29T14:34:04;15.60;99.90
13673;DHT22;6909;52.202;9.876;2024-03-29T14:36:31;15.30;99.90
13673;DHT22;6909;52.202;9.876;2024-03-29T14:38:58;15.40;99.90
13673;DHT22;6909;52.202;9.876;2024-03-29T14:41:28;15.50;99.90
13673;DHT22;6909;52.202;9.876;2024-03-29T14:43:55;15.50;99.90
13673;DHT22;6909;52.202;9.876;2024-03-29T14:46:22;15.40;99.90
13673;DHT22;6909;52.202;9.876;2024-03-29T14:48:49;15.40;99.90
13673;DHT22;6909;52.202;9.876;2024-03-29T14:51:16;15.30;99.90
13673;DHT22;6909;52.202;9.876;2024-03-29T14:53:44;15.20;99.90
13673;DHT22;6909;52.202;9.876;2024-03-29T14:56:15;15.30;99.90
13673;DHT22;6909;52.202;9.876;2024-03-29T14:58:43;15.30;99.90
13673;DHT22;6909;52.202;9.876;2024-03-29T15:01:10;15.50;99.90
13673;DHT22;6909;52.202;9.876;2024-03-29T15:03:37;15.70;99.90
13673;DHT22;6909;52.202;9.876;2024-03-29T15:06:04;15.70;99.90
13673;DHT22;6909;52.202;9.876;2024-03-29T15:08:31;15.50;99.90
13673;DHT22;6909;52.202;9.876;2024-03-29T15:10:58;15.50;99.90
13673;DHT22;6909;52.202;9.876;2024-03-29T15:13:24;15.50;99.90
13673;DHT22;6909;52.202;9.876;2024-03-29T15:15:56;15.60;99.90
13673;DHT22;6909;52.202;9.876;2024-03-29T15:18:23;15.70;99.90
13673;DHT22;6909;52.202;9.876;2024-03-29T15:20:54;15.60;99.90
13673;DHT22;6909;52.202;9.876;2024-03-29T15:23:21;15.50;99.90
13673;DHT22;6909;52.202;9.876;2024-03-29T15:25:50;15.30;99.90
13673;DHT22;6909;52.202;9.876;2024-03-29T15:28:17;15.10;99.90
13673;DHT22;6909;52.202;9.876;2024-03-29T15:31:08;14.90;99.90
13673;DHT22;6909;52.202;9.876;2024-03-29T15:33:36;15.00;99.90
13673;DHT22;6909;52.202;9.876;2024-03-29T15:36:03;15.00;99.90
13673;DHT22;6909;52.202;9.876;2024-03-29T15:38:30;15.00;99.90
13673;DHT22;6909;52.202;9.876;2024-03-29T15:40:56;15.00;99.90
13673;DHT22;6909;52.202;9.876;2024-03-29T15:43:23;15.10;99.90
13673;DHT22;6909;52.202;9.876;2024-03-29T15:45:50;14.90;99.90
13673;DHT22;6909;52.202;9.876;2024-03-29T15:48:18;14.80;99.90
13673;DHT22;6909;52.202;9.876;2024-03-29T15:50:45;14.90;99.90
13673;DHT22;6909;52.202;9.876;2024-03-29T15:53:12;15.00;99.90
13673;DHT22;6909;52.202;9.876;2024-03-29T15:55:39;15.10;99.90
13673;DHT22;6909;52.202;9.876;2024-03-29T15:58:05;15.00;99.90
13673;DHT22;6909;52.202;9.876;2024-03-29T16:00:32;15.00;99.90
13673;DHT22;6909;52.202;9.876;2024-03-29T16:03:03;15.10;99.90